地図

経路データ

SID SEASON NUMBER BASIN SUBBASIN NAME ISO_TIME NATURE LAT LON WMO_WIND WMO_PRES WMO_AGENCY TRACK_TYPE DIST2LAND LANDFALL IFLAG USA_AGENCY USA_ATCF_ID USA_LAT USA_LON USA_RECORD USA_STATUS USA_WIND USA_PRES USA_SSHS USA_R34_NE USA_R34_SE USA_R34_SW USA_R34_NW USA_R50_NE USA_R50_SE USA_R50_SW USA_R50_NW USA_R64_NE USA_R64_SE USA_R64_SW USA_R64_NW USA_POCI USA_ROCI USA_RMW USA_EYE TOKYO_LAT TOKYO_LON TOKYO_GRADE TOKYO_WIND TOKYO_PRES TOKYO_R50_DIR TOKYO_R50_LONG TOKYO_R50_SHORT TOKYO_R30_DIR TOKYO_R30_LONG TOKYO_R30_SHORT TOKYO_LAND CMA_LAT CMA_LON CMA_CAT CMA_WIND CMA_PRES HKO_LAT HKO_LON HKO_CAT HKO_WIND HKO_PRES NEWDELHI_LAT NEWDELHI_LON NEWDELHI_GRADE NEWDELHI_WIND NEWDELHI_PRES NEWDELHI_CI NEWDELHI_DP NEWDELHI_POCI REUNION_LAT REUNION_LON REUNION_TYPE REUNION_WIND REUNION_PRES REUNION_TNUM REUNION_CI REUNION_RMW REUNION_R34_NE REUNION_R34_SE REUNION_R34_SW REUNION_R34_NW REUNION_R50_NE REUNION_R50_SE REUNION_R50_SW REUNION_R50_NW REUNION_R64_NE REUNION_R64_SE REUNION_R64_SW REUNION_R64_NW BOM_LAT BOM_LON BOM_TYPE BOM_WIND BOM_PRES BOM_TNUM BOM_CI BOM_RMW BOM_R34_NE BOM_R34_SE BOM_R34_SW BOM_R34_NW BOM_R50_NE BOM_R50_SE BOM_R50_SW BOM_R50_NW BOM_R64_NE BOM_R64_SE BOM_R64_SW BOM_R64_NW BOM_ROCI BOM_POCI BOM_EYE BOM_POS_METHOD BOM_PRES_METHOD NADI_LAT NADI_LON NADI_CAT NADI_WIND NADI_PRES WELLINGTON_LAT WELLINGTON_LON WELLINGTON_WIND WELLINGTON_PRES DS824_LAT DS824_LON DS824_STAGE DS824_WIND DS824_PRES TD9636_LAT TD9636_LON TD9636_STAGE TD9636_WIND TD9636_PRES TD9635_LAT TD9635_LON TD9635_WIND TD9635_PRES TD9635_ROCI NEUMANN_LAT NEUMANN_LON NEUMANN_CLASS NEUMANN_WIND NEUMANN_PRES MLC_LAT MLC_LON MLC_CLASS MLC_WIND MLC_PRES USA_GUST BOM_GUST BOM_GUST_PER REUNION_GUST REUNION_GUST_PER USA_SEAHGT USA_SEARAD_NE USA_SEARAD_SE USA_SEARAD_SW USA_SEARAD_NW STORM_SPEED STORM_DIR
1965165N23269 1965 48 NA GM NOT_NAMED 1965-06-13 18:00:00 TS 23.1000 -91.0000 30 hurdat_atl main 234 234 O_____________ hurdat_atl AL011965 23.1000 -91.0000 TD 30 -1 11 352
1965165N23269 1965 48 NA GM NOT_NAMED 1965-06-13 21:00:00 TS 23.6475 -91.0772 main 291 291 P_____________ AL011965 23.6475 -91.0772 TD 32 -1 11 355
1965165N23269 1965 48 NA GM NOT_NAMED 1965-06-14 00:00:00 TS 24.2000 -91.1000 35 hurdat_atl main 356 356 O_____________ hurdat_atl AL011965 24.2000 -91.1000 TS 35 0 11 2
1965165N23269 1965 48 NA GM NOT_NAMED 1965-06-14 03:00:00 TS 24.7575 -91.0301 main 417 417 P_____________ AL011965 24.7575 -91.0301 TS 37 0 11 9
1965165N23269 1965 48 NA GM NOT_NAMED 1965-06-14 06:00:00 TS 25.3000 -90.9000 40 hurdat_atl main 424 368 O_____________ hurdat_atl AL011965 25.3000 -90.9000 TS 40 0 11 13
1965165N23269 1965 48 NA GM NOT_NAMED 1965-06-14 09:00:00 TS 25.8225 -90.7649 main 368 312 P_____________ AL011965 25.8225 -90.7649 TS 40 0 10 15
1965165N23269 1965 48 NA GM NOT_NAMED 1965-06-14 12:00:00 TS 26.3000 -90.6000 40 hurdat_atl main 312 268 O_____________ hurdat_atl AL011965 26.3000 -90.6000 TS 40 0 9 19
1965165N23269 1965 48 NA GM NOT_NAMED 1965-06-14 15:00:00 TS 26.7074 -90.4296 main 268 223 P_____________ AL011965 26.7074 -90.4296 TS 42 0 9 24
1965165N23269 1965 48 NA GM NOT_NAMED 1965-06-14 18:00:00 TS 27.1000 -90.2000 45 hurdat_atl main 223 178 O_____________ hurdat_atl AL011965 27.1000 -90.2000 TS 45 0 9 30
1965165N23269 1965 48 NA GM NOT_NAMED 1965-06-14 21:00:00 TS 27.5121 -89.9165 main 179 118 P_____________ AL011965 27.5121 -89.9165 TS 45 0 11 35
1965165N23269 1965 48 NA GM NOT_NAMED 1965-06-15 00:00:00 TS 28.0000 -89.5000 45 1005 hurdat_atl main 118 45 O_____________ hurdat_atl AL011965 28.0000 -89.5000 TS 45 1005 0 14 39
1965165N23269 1965 48 NA GM NOT_NAMED 1965-06-15 03:00:00 TS 28.6190 -88.9153 main 48 36 P_____________ AL011965 28.6190 -88.9153 TS 47 1005 0 17 41
1965165N23269 1965 48 NA GM NOT_NAMED 1965-06-15 06:00:00 TS 29.3000 -88.2000 50 1006 hurdat_atl main 80 44 O_____________ hurdat_atl AL011965 29.3000 -88.2000 TS 50 1006 0 18 43
1965165N23269 1965 48 NA GM NOT_NAMED 1965-06-15 09:00:00 TS 29.9019 -87.5272 main 44 0 P_____________ AL011965 29.9019 -87.5272 TS 50 1006 0 19 46
1965165N23269 1965 48 NA GM NOT_NAMED 1965-06-15 11:00:00 TS 30.4000 -86.9000 50 1007 hurdat_atl main 0 0 O_____________ hurdat_atl AL011965 30.4000 -86.9000 L TS 50 1007 0 24 48
1965165N23269 1965 48 NA NA NOT_NAMED 1965-06-15 12:00:00 TS 30.7000 -86.5000 50 1007 hurdat_atl main 0 0 O_____________ hurdat_atl AL011965 30.7000 -86.5000 TS 50 1007 0 27 50
1965165N23269 1965 48 NA NA NOT_NAMED 1965-06-15 15:00:00 TS 31.5386 -85.3235 main 0 0 P_____________ AL011965 31.5386 -85.3235 TS 45 0 25 51
1965165N23269 1965 48 NA NA NOT_NAMED 1965-06-15 18:00:00 TS 32.3000 -84.2000 40 hurdat_atl main 0 0 O_____________ hurdat_atl AL011965 32.3000 -84.2000 TS 40 0 23 51
1965165N23269 1965 48 NA NA NOT_NAMED 1965-06-15 21:00:00 TS 33.0193 -83.1986 main 0 0 P_____________ AL011965 33.0193 -83.1986 TS 37 0 23 52
1965165N23269 1965 48 NA NA NOT_NAMED 1965-06-16 00:00:00 ET 33.7000 -82.1000 35 hurdat_atl main 0 0 O_____________ hurdat_atl AL011965 33.7000 -82.1000 EX 35 -4 25 57
1965165N23269 1965 48 NA NA NOT_NAMED 1965-06-16 03:00:00 ET 34.3807 -80.6602 main 0 0 P_____________ AL011965 34.3807 -80.6602 EX 35 -4 28 62
1965165N23269 1965 48 NA NA NOT_NAMED 1965-06-16 06:00:00 ET 35.0000 -79.1000 35 hurdat_atl main 0 0 O_____________ hurdat_atl AL011965 35.0000 -79.1000 EX 35 -4 27 65
1965165N23269 1965 48 NA NA NOT_NAMED 1965-06-16 09:00:00 ET 35.5496 -77.6632 main 0 0 P_____________ AL011965 35.5496 -77.6632 EX 37 -4 26 67
1965165N23269 1965 48 NA NA NOT_NAMED 1965-06-16 12:00:00 ET 36.0000 -76.2000 40 hurdat_atl main 11 0 O_____________ hurdat_atl AL011965 36.0000 -76.2000 EX 40 -4 26 73
1965165N23269 1965 48 NA NA NOT_NAMED 1965-06-16 15:00:00 ET 36.3243 -74.5307 main 104 104 P_____________ AL011965 36.3243 -74.5307 EX 40 -4 26 77
1965165N23269 1965 48 NA NA NOT_NAMED 1965-06-16 18:00:00 ET 36.6000 -73.0000 40 hurdat_atl main 240 240 O_____________ hurdat_atl AL011965 36.6000 -73.0000 EX 40 -4 22 74
1965165N23269 1965 48 NA NA NOT_NAMED 1965-06-16 21:00:00 ET 36.9404 -71.8346 main 329 323 P_____________ AL011965 36.9404 -71.8346 EX 42 -4 17 66
1965165N23269 1965 48 NA NA NOT_NAMED 1965-06-17 00:00:00 ET 37.3000 -71.0000 45 hurdat_atl main 376 376 O_____________ hurdat_atl AL011965 37.3000 -71.0000 EX 45 -4 13 57
1965165N23269 1965 48 NA NA NOT_NAMED 1965-06-17 03:00:00 ET 37.6629 -70.4609 main 385 378 P_____________ AL011965 37.6629 -70.4609 EX 47 -4 11 49
1965165N23269 1965 48 NA NA NOT_NAMED 1965-06-17 06:00:00 ET 38.0000 -70.0000 50 hurdat_atl main 383 372 O_____________ hurdat_atl AL011965 38.0000 -70.0000 EX 50 -4 11 56
1965165N23269 1965 48 NA NA NOT_NAMED 1965-06-17 09:00:00 ET 38.2718 -69.3244 main 375 370 P_____________ AL011965 38.2718 -69.3244 EX 50 -4 13 67
1965165N23269 1965 48 NA NA NOT_NAMED 1965-06-17 12:00:00 ET 38.5000 -68.5000 50 hurdat_atl main 378 373 O_____________ hurdat_atl AL011965 38.5000 -68.5000 EX 50 -4 15 72
1965165N23269 1965 48 NA NA NOT_NAMED 1965-06-17 15:00:00 ET 38.7309 -67.5006 main 395 390 P_____________ AL011965 38.7309 -67.5006 EX 47 -4 16 76
1965165N23269 1965 48 NA NA NOT_NAMED 1965-06-17 18:00:00 ET 38.9000 -66.5000 45 hurdat_atl main 429 429 O_____________ hurdat_atl AL011965 38.9000 -66.5000 EX 45 -4 14 81
1965165N23269 1965 48 NA NA NOT_NAMED 1965-06-17 21:00:00 ET 38.9487 -65.7108 main 478 471 P_____________ AL011965 38.9487 -65.7108 EX 42 -4 12 85
1965165N23269 1965 48 NA NA NOT_NAMED 1965-06-18 00:00:00 ET 39.0000 -65.0000 40 hurdat_atl main 501 485 O_____________ hurdat_atl AL011965 39.0000 -65.0000 EX 40 -4 12 79
1965165N23269 1965 48 NA NA NOT_NAMED 1965-06-18 03:00:00 ET 39.1695 -64.2500 main 485 477 P_____________ AL011965 39.1695 -64.2500 EX 37 -4 12 71
1965165N23269 1965 48 NA NA NOT_NAMED 1965-06-18 06:00:00 ET 39.4000 -63.5000 35 hurdat_atl main 479 473 O_____________ hurdat_atl AL011965 39.4000 -63.5000 EX 35 -4 12 68
1965165N23269 1965 48 NA NA NOT_NAMED 1965-06-18 09:00:00 ET 39.6337 -62.7864 main 480 474 P_____________ AL011965 39.6337 -62.7864 EX 35 -4 13 67
1965165N23269 1965 48 NA NA NOT_NAMED 1965-06-18 12:00:00 ET 39.9000 -62.0000 35 hurdat_atl main 484 484 O_____________ hurdat_atl AL011965 39.9000 -62.0000 EX 35 -4 14 68
1965165N23269 1965 48 NA NA NOT_NAMED 1965-06-18 15:00:00 ET 40.1615 -61.0727 main 503 503 P_____________ AL011965 40.1615 -61.0727 EX 35 -4 16 69
1965165N23269 1965 48 NA NA NOT_NAMED 1965-06-18 18:00:00 ET 40.5000 -60.0000 35 hurdat_atl main 519 507 O_____________ hurdat_atl AL011965 40.5000 -60.0000 EX 35 -4 18 65
1965165N23269 1965 48 NA NA NOT_NAMED 1965-06-18 21:00:00 ET 40.9281 -58.8941 main 510 494 P_____________ AL011965 40.9281 -58.8941 EX 35 -4 21 62
1965165N23269 1965 48 NA NA NOT_NAMED 1965-06-19 00:00:00 ET 41.5000 -57.5000 35 hurdat_atl main 503 503 O_____________ hurdat_atl AL011965 41.5000 -57.5000 EX 35 -4 28 62
1965165N23269 1965 48 NA NA NOT_NAMED 1965-06-19 03:00:00 ET 42.2387 -55.5799 main 511 400 P_____________ AL011965 42.2387 -55.5799 EX 35 -4 33 63
1965165N23269 1965 48 NA NA NOT_NAMED 1965-06-19 06:00:00 ET 43.0000 -53.5000 35 hurdat_atl main 400 348 O_____________ hurdat_atl AL011965 43.0000 -53.5000 EX 35 -4 32 64
1965165N23269 1965 48 NA NA NOT_NAMED 1965-06-19 09:00:00 ET 43.6494 -51.6722 main 353 344 P_____________ AL011965 43.6494 -51.6722 EX 35 -4 28 65
1965165N23269 1965 48 NA NA NOT_NAMED 1965-06-19 12:00:00 ET 44.2000 -50.0000 35 hurdat_atl main 364 364 O_____________ hurdat_atl AL011965 44.2000 -50.0000 EX 35 -4 25 66
1965165N23269 1965 48 NA NA NOT_NAMED 1965-06-19 15:00:00 ET 44.6727 -48.4237 main 425 425 P_____________ AL011965 44.6727 -48.4237 EX 35 -4 23 69
1965165N23269 1965 48 NA NA NOT_NAMED 1965-06-19 18:00:00 ET 45.0000 -47.0000 35 hurdat_atl main 503 503 O_____________ hurdat_atl AL011965 45.0000 -47.0000 EX 35 -4 20 76
1965165N23269 1965 48 NA NA NOT_NAMED 1965-06-19 21:00:00 ET 45.1497 -45.7091 main 591 591 P_____________ AL011965 45.1497 -45.7091 EX 35 -4 18 84
1965165N23269 1965 48 NA NA NOT_NAMED 1965-06-20 00:00:00 ET 45.2000 -44.5000 35 hurdat_atl main 669 669 O_____________ hurdat_atl AL011965 45.2000 -44.5000 EX 35 -4 17 88
1965165N23269 1965 48 NA NA NOT_NAMED 1965-06-20 03:00:00 ET 45.2068 -43.3569 main 747 747 P_____________ AL011965 45.2068 -43.3569 EX 35 -4 18 87
1965165N23269 1965 48 NA NA NOT_NAMED 1965-06-20 06:00:00 ET 45.3000 -42.0000 35 hurdat_atl main 844 844 O_____________ hurdat_atl AL011965 45.3000 -42.0000 EX 35 -4 23 80
1965165N23269 1965 48 NA NA NOT_NAMED 1965-06-20 09:00:00 ET 45.5801 -40.1852 main 966 966 P_____________ AL011965 45.5801 -40.1852 EX 32 -4 29 76
1965165N23269 1965 48 NA NA NOT_NAMED 1965-06-20 12:00:00 ET 46.0000 -38.0000 30 hurdat_atl main 1118 1118 O_____________ hurdat_atl AL011965 46.0000 -38.0000 EX 30 -4 33 74
1965165N23269 1965 48 NA NA NOT_NAMED 1965-06-20 15:00:00 ET 46.4965 -35.5733 main 1285 1285 P_____________ AL011965 46.4965 -35.5733 EX 30 -4 36 74
1965165N23269 1965 48 NA NA NOT_NAMED 1965-06-20 18:00:00 ET 47.0000 -33.0000 30 hurdat_atl main 1470 O_____________ hurdat_atl AL011965 47.0000 -33.0000 EX 30 -4 36 74

IBTrACS Databaseについて

本データベースは、米国NOAAが公開する1842年以降の世界の熱帯低気圧のベストトラックデータアーカイブInternational Best Track Archive for Climate Stewardship (IBTrACS)を、ウェブで閲覧しやすい形式に変換したものです。

最終更新日:2021-10-27